Time;durP1;ratioP1;P1;durP2;ratioP2;P2;SDS_P1;SDS_P2;PMS_P1;PMS_P2;Temp;Humidity;BMP_temperature;BMP_pressure;BME280_temperature;BME280_humidity;BME280_pressure;Samples;Min_cycle;Max_cycle;Signal;HPM_P1;HPM_P2
2022/07/21 00:00:41;;;;;;;11.75;10.73;;;;;;;-141.48;100.00;69781.59;4969116;29;20031;-67
2022/07/21 00:03:12;;;;;;;12.68;11.75;;;;;;;-141.48;100.00;69781.59;4969327;29;20034;-66
2022/07/21 00:05:43;;;;;;;12.82;11.63;;;;;;;-141.48;100.00;69781.59;4969027;29;20412;-68
2022/07/21 00:08:14;;;;;;;14.57;13.52;;;;;;;-141.48;100.00;69781.59;4969368;29;20080;-67
2022/07/21 00:10:44;;;;;;;14.18;13.13;;;;;;;-141.48;100.00;69781.59;4952935;29;20084;-68
2022/07/21 00:13:15;;;;;;;10.95;10.10;;;;;;;-141.48;100.00;69781.59;4968686;29;20037;-71
2022/07/21 00:15:46;;;;;;;14.15;11.57;;;;;;;-141.48;100.00;69781.59;4969318;29;20506;-69
2022/07/21 00:18:18;;;;;;;10.73;9.75;;;;;;;-141.48;100.00;69781.59;4969338;29;20037;-67
2022/07/21 00:20:49;;;;;;;12.25;11.13;;;;;;;-141.48;100.00;69781.59;4969480;29;20031;-68
2022/07/21 00:23:19;;;;;;;12.82;11.63;;;;;;;-141.48;100.00;69781.59;4969568;29;20091;-68
2022/07/21 00:25:50;;;;;;;11.80;10.80;;;;;;;-141.48;100.00;69781.59;4969080;29;20065;-67
2022/07/21 00:28:21;;;;;;;14.75;11.07;;;;;;;-141.48;100.00;69781.59;4970854;29;20097;-67
2022/07/21 00:30:51;;;;;;;13.40;12.18;;;;;;;-141.48;100.00;69781.59;4972826;29;20027;-73
2022/07/21 00:33:22;;;;;;;13.45;12.20;;;;;;;-141.48;100.00;69781.59;4972922;29;20034;-67
2022/07/21 00:35:52;;;;;;;13.80;12.63;;;;;;;-141.48;100.00;69781.59;4972540;29;20027;-70
2022/07/21 00:38:23;;;;;;;13.60;10.32;;;;;;;-141.48;100.00;69781.59;4972993;29;20031;-69
2022/07/21 00:40:54;;;;;;;13.40;12.25;;;;;;;-141.48;100.00;69781.59;4972834;29;20019;-72
2022/07/21 00:43:24;;;;;;;15.10;12.25;;;;;;;-141.48;100.00;69781.59;4956476;29;20034;-67
2022/07/21 00:45:55;;;;;;;13.35;12.18;;;;;;;-141.48;100.00;69781.59;4972799;29;20037;-67
2022/07/21 00:48:26;;;;;;;14.57;13.35;;;;;;;-141.48;100.00;69781.59;4956132;29;20046;-66
2022/07/21 00:50:56;;;;;;;12.60;11.60;;;;;;;-141.48;100.00;69781.59;4972515;29;20476;-66
2022/07/21 00:53:26;;;;;;;13.75;12.70;;;;;;;-141.48;100.00;69781.59;4972214;29;20199;-65
2022/07/21 00:55:59;;;;;;;14.32;13.15;;;;;;;-141.48;100.00;69781.59;4972459;29;20055;-66
2022/07/21 00:58:29;;;;;;;13.80;12.63;;;;;;;-141.48;100.00;69781.59;4972319;29;20035;-71
2022/07/21 01:01:00;;;;;;;15.40;12.88;;;;;;;-141.48;100.00;69781.59;4972569;29;20039;-66
2022/07/21 01:03:30;;;;;;;14.82;13.63;;;;;;;-141.48;100.00;69781.59;4955982;29;20038;-67
2022/07/21 01:06:02;;;;;;;15.52;13.93;;;;;;;-141.48;100.00;69781.59;4971972;29;20031;-66
2022/07/21 01:08:32;;;;;;;15.02;13.77;;;;;;;-141.48;100.00;69781.59;4955905;29;20030;-68
2022/07/21 01:11:03;;;;;;;16.08;14.82;;;;;;;-141.48;100.00;69781.59;4955870;29;20039;-66
2022/07/21 01:13:33;;;;;;;13.73;12.40;;;;;;;-141.48;100.00;69781.59;4972142;29;20522;-66
2022/07/21 01:16:04;;;;;;;14.50;13.23;;;;;;;-141.48;100.00;69781.59;4972090;29;20026;-66
2022/07/21 01:18:36;;;;;;;15.60;14.40;;;;;;;-141.48;100.00;69781.59;4971927;29;20035;-67
2022/07/21 01:21:28;;;;;;;12.27;11.18;;;;;;;-141.48;100.00;69781.59;4972401;29;20027;-66
2022/07/21 01:23:59;;;;;;;15.60;14.50;;;;;;;-141.48;100.00;69781.59;4972103;29;20113;-66
2022/07/21 01:26:30;;;;;;;16.48;15.07;;;;;;;-141.48;100.00;69781.59;4955554;29;20091;-66
2022/07/21 01:29:01;;;;;;;17.08;15.88;;;;;;;-141.48;100.00;69781.59;4955409;29;20083;-70
2022/07/21 01:31:31;;;;;;;13.82;12.93;;;;;;;-141.48;100.00;69781.59;4971721;29;20031;-67
2022/07/21 01:34:02;;;;;;;14.57;13.35;;;;;;;-141.48;100.00;69781.59;4971340;29;20038;-66
2022/07/21 01:36:33;;;;;;;14.10;12.98;;;;;;;-141.48;100.00;69781.59;4971745;29;20110;-66
2022/07/21 01:41:54;;;;;;;14.68;13.43;;;;;;;-141.48;100.00;69781.59;4971889;29;20068;-68
2022/07/21 01:44:25;;;;;;;15.18;14.13;;;;;;;-141.48;100.00;69781.59;4971389;29;20023;-66
2022/07/21 01:46:58;;;;;;;15.07;13.88;;;;;;;-141.48;100.00;69781.59;4971735;29;20034;-66
2022/07/21 01:49:28;;;;;;;14.13;13.13;;;;;;;-141.48;100.00;69781.59;4971644;29;20039;-67
2022/07/21 01:52:00;;;;;;;15.13;13.77;;;;;;;-141.48;100.00;69781.59;4972052;29;20034;-66
2022/07/21 01:54:30;;;;;;;14.20;12.20;;;;;;;-141.48;100.00;69781.59;4971496;29;20043;-66
2022/07/21 01:57:00;;;;;;;14.30;12.93;;;;;;;-141.48;100.00;69781.59;4971703;29;20114;-69
2022/07/21 01:59:31;;;;;;;15.68;14.20;;;;;;;-141.48;100.00;69781.59;4971545;29;20026;-69
2022/07/21 02:02:02;;;;;;;15.20;14.00;;;;;;;-141.48;100.00;69781.59;4971382;29;20035;-67
2022/07/21 02:04:34;;;;;;;14.23;12.60;;;;;;;-141.48;100.00;69781.59;4970735;29;20499;-67
2022/07/21 02:07:04;;;;;;;14.65;13.18;;;;;;;-141.48;100.00;69781.59;4971329;29;20058;-66
2022/07/21 02:09:35;;;;;;;12.95;11.98;;;;;;;-141.48;100.00;69781.59;4971340;29;20026;-66
2022/07/21 02:12:05;;;;;;;12.43;11.40;;;;;;;-141.48;100.00;69781.59;4954753;29;20117;-66
2022/07/21 02:14:36;;;;;;;13.30;12.30;;;;;;;-141.48;100.00;69781.59;4970323;29;20034;-67
2022/07/21 02:17:06;;;;;;;15.30;13.93;;;;;;;-141.48;100.00;69781.59;4970685;29;20404;-67
2022/07/21 02:19:37;;;;;;;11.30;10.35;;;;;;;-141.48;100.00;69781.59;4954412;29;20022;-66
2022/07/21 02:22:07;;;;;;;15.77;13.98;;;;;;;-141.48;100.00;69781.59;4970800;29;20050;-67
2022/07/21 02:24:39;;;;;;;13.18;12.07;;;;;;;-141.48;100.00;69781.59;4970336;29;20428;-67
2022/07/21 02:27:10;;;;;;;13.18;12.18;;;;;;;-141.48;100.00;69781.59;4970379;29;20041;-66
2022/07/21 02:29:40;;;;;;;12.60;11.60;;;;;;;-141.48;100.00;69781.59;4970805;29;20027;-71
2022/07/21 02:32:11;;;;;;;12.15;11.20;;;;;;;-141.48;100.00;69781.59;4970444;29;20041;-70
2022/07/21 02:34:41;;;;;;;12.63;11.50;;;;;;;-141.48;100.00;69781.59;4970412;29;20034;-68
2022/07/21 02:37:11;;;;;;;12.93;11.93;;;;;;;-141.48;100.00;69781.59;4970146;29;20026;-66
2022/07/21 02:39:43;;;;;;;12.77;10.32;;;;;;;-141.48;100.00;69781.59;4969875;29;20122;-71
2022/07/21 02:42:13;;;;;;;12.30;11.35;;;;;;;-141.48;100.00;69781.59;4970140;29;20027;-69
2022/07/21 02:44:44;;;;;;;10.88;9.88;;;;;;;-141.48;100.00;69781.59;4969808;29;20087;-67
2022/07/21 02:47:14;;;;;;;10.23;9.52;;;;;;;-141.48;100.00;69781.59;4970183;29;20049;-67
2022/07/21 02:49:45;;;;;;;11.25;10.35;;;;;;;-141.48;100.00;69781.59;4953344;29;20399;-66
2022/07/21 02:52:15;;;;;;;11.52;10.82;;;;;;;-141.48;100.00;69781.59;4969354;29;20053;-66
2022/07/21 02:54:45;;;;;;;12.32;11.35;;;;;;;-141.48;100.00;69781.59;4969417;29;20031;-66
2022/07/21 02:57:16;;;;;;;10.45;9.70;;;;;;;-141.48;100.00;69781.59;4970124;29;20037;-70
2022/07/21 02:59:46;;;;;;;12.77;11.55;;;;;;;-141.48;100.00;69781.59;4970095;29;20026;-68
2022/07/21 03:02:17;;;;;;;11.23;10.43;;;;;;;-141.48;100.00;69781.59;4969966;29;20022;-67
2022/07/21 03:04:47;;;;;;;12.20;11.18;;;;;;;-141.48;100.00;69781.59;4969451;29;20037;-67
2022/07/21 03:07:17;;;;;;;13.45;12.13;;;;;;;-141.48;100.00;69781.59;4969705;29;20093;-67
2022/07/21 03:09:48;;;;;;;10.43;9.82;;;;;;;-141.48;100.00;69781.59;4969857;29;20034;-67
2022/07/21 03:12:18;;;;;;;11.85;10.98;;;;;;;-141.48;100.00;69781.59;4970168;29;20027;-66
2022/07/21 03:14:49;;;;;;;10.82;9.98;;;;;;;-141.48;100.00;69781.59;4969442;29;20031;-66
2022/07/21 03:17:19;;;;;;;10.73;9.73;;;;;;;-141.48;100.00;69781.59;4969389;29;20060;-70
2022/07/21 03:19:49;;;;;;;12.50;11.40;;;;;;;-141.48;100.00;69781.59;4953296;29;20480;-67
2022/07/21 03:22:20;;;;;;;14.30;12.45;;;;;;;-141.48;100.00;69781.59;4969479;29;20038;-67
2022/07/21 03:24:50;;;;;;;11.30;10.23;;;;;;;-141.48;100.00;69781.59;4968879;29;20026;-66
2022/07/21 03:27:21;;;;;;;9.32;8.75;;;;;;;-141.48;100.00;69781.59;4969457;29;20429;-66
2022/07/21 03:29:51;;;;;;;13.90;12.98;;;;;;;-141.48;100.00;69781.59;4952950;29;20101;-67
2022/07/21 03:32:22;;;;;;;11.88;11.05;;;;;;;-141.48;100.00;69781.59;4969860;29;20434;-67
2022/07/21 03:34:52;;;;;;;11.25;9.68;;;;;;;-141.48;100.00;69781.59;4969037;29;20484;-69
2022/07/21 03:37:22;;;;;;;14.02;12.38;;;;;;;-141.48;100.00;69781.59;4969446;29;20035;-68
2022/07/21 03:39:53;;;;;;;11.50;10.32;;;;;;;-141.48;100.00;69781.59;4969129;29;20115;-67
2022/07/21 03:42:24;;;;;;;11.35;10.40;;;;;;;-141.48;100.00;69781.59;4968967;29;20031;-66
2022/07/21 03:44:54;;;;;;;13.25;11.88;;;;;;;-141.48;100.00;69781.59;4969035;29;20029;-66
2022/07/21 03:47:24;;;;;;;13.43;12.40;;;;;;;-141.48;100.00;69781.59;4952935;29;20400;-66
2022/07/21 03:49:55;;;;;;;10.60;9.45;;;;;;;-141.48;100.00;69781.59;4968944;29;20125;-69
2022/07/21 03:52:25;;;;;;;14.50;11.85;;;;;;;-141.48;100.00;69781.59;4969033;29;20031;-69
2022/07/21 03:55:08;;;;;;;11.23;10.30;;;;;;;-141.48;100.00;69781.59;4968425;29;20039;-67
2022/07/21 03:57:41;;;;;;;11.77;10.75;;;;;;;-141.48;100.00;69781.59;4968928;29;20038;-70
2022/07/21 04:00:18;;;;;;;11.32;10.35;;;;;;;-141.48;100.00;69781.59;4969208;29;20385;-68
2022/07/21 04:02:49;;;;;;;12.32;11.35;;;;;;;-141.48;100.00;69781.59;4968752;29;20038;-70
2022/07/21 04:05:20;;;;;;;12.50;11.25;;;;;;;-141.48;100.00;69781.59;4968448;29;20050;-70
2022/07/21 04:07:52;;;;;;;11.30;10.40;;;;;;;-141.48;100.00;69781.59;4968971;29;20073;-69
2022/07/21 04:10:25;;;;;;;11.93;11.02;;;;;;;-141.48;100.00;69781.59;4968850;29;20038;-66
2022/07/21 04:12:57;;;;;;;13.10;10.90;;;;;;;-141.48;100.00;69781.59;4969229;29;20031;-70
2022/07/21 04:15:28;;;;;;;10.73;9.98;;;;;;;-141.48;100.00;69781.59;4968455;29;20157;-70
2022/07/21 04:17:58;;;;;;;10.57;9.70;;;;;;;-141.48;100.00;69781.59;4952657;29;20500;-70
2022/07/21 04:20:29;;;;;;;13.13;11.98;;;;;;;-141.48;100.00;69781.59;4968676;29;20049;-68
2022/07/21 04:22:59;;;;;;;13.52;12.02;;;;;;;-141.48;100.00;69781.59;4969641;29;20549;-69
2022/07/21 04:25:30;;;;;;;11.32;10.63;;;;;;;-141.48;100.00;69781.59;4969480;29;20038;-70
2022/07/21 04:28:00;;;;;;;12.02;11.02;;;;;;;-141.48;100.00;69781.59;4969154;29;20050;-70
2022/07/21 04:30:31;;;;;;;10.73;9.90;;;;;;;-141.48;100.00;69781.59;4968840;29;20035;-70
2022/07/21 04:33:01;;;;;;;11.95;10.93;;;;;;;-141.48;100.00;69781.59;4968795;29;20449;-68
2022/07/21 04:35:32;;;;;;;12.73;11.15;;;;;;;-141.48;100.00;69781.59;4968518;29;20069;-69
2022/07/21 04:38:02;;;;;;;11.48;10.48;;;;;;;-141.48;100.00;69781.59;4968568;29;20488;-70
2022/07/21 04:40:33;;;;;;;13.00;12.07;;;;;;;-141.48;100.00;69781.59;4968492;29;20092;-69
2022/07/21 04:43:03;;;;;;;12.43;11.27;;;;;;;-141.48;100.00;69781.59;4969071;29;20167;-71
2022/07/21 04:45:34;;;;;;;10.02;9.32;;;;;;;-141.48;100.00;69781.59;4968722;29;20061;-68
2022/07/21 04:48:04;;;;;;;13.18;10.25;;;;;;;-141.48;100.00;69781.59;4952750;29;20034;-69
2022/07/21 04:50:35;;;;;;;9.40;8.55;;;;;;;-141.48;100.00;69781.59;4968678;29;20054;-69
2022/07/21 04:53:05;;;;;;;10.70;9.80;;;;;;;-141.48;100.00;69781.59;4968415;29;20079;-70
2022/07/21 04:55:36;;;;;;;10.07;9.27;;;;;;;-141.48;100.00;69781.59;4968216;29;20050;-70
2022/07/21 04:58:06;;;;;;;11.70;10.18;;;;;;;-141.48;100.00;69781.59;4968397;29;20404;-68
2022/07/21 05:00:37;;;;;;;9.80;9.15;;;;;;;-141.48;100.00;69781.59;4968471;29;20061;-66
2022/07/21 05:03:07;;;;;;;10.70;9.27;;;;;;;-141.48;100.00;69781.59;4968596;29;20042;-67
2022/07/21 05:05:37;;;;;;;9.10;8.48;;;;;;;-141.48;100.00;69781.59;4967821;29;20026;-68
2022/07/21 05:08:08;;;;;;;12.20;10.93;;;;;;;-141.48;100.00;69781.59;4968038;29;20031;-67
2022/07/21 05:10:38;;;;;;;10.50;9.60;;;;;;;-141.48;100.00;69781.59;4968374;29;20030;-67
2022/07/21 05:13:09;;;;;;;11.90;10.68;;;;;;;-141.48;100.00;69781.59;4968400;29;20031;-66
2022/07/21 05:15:39;;;;;;;10.98;9.73;;;;;;;-141.48;100.00;69781.59;4955020;29;20061;-67
2022/07/21 05:18:11;;;;;;;13.90;11.23;;;;;;;-141.48;100.00;69781.59;4971347;29;20134;-67
2022/07/21 05:20:41;;;;;;;12.02;10.90;;;;;;;-141.48;100.00;69781.59;4955158;29;20038;-67
2022/07/21 05:23:12;;;;;;;15.25;12.93;;;;;;;-141.48;100.00;69781.59;4955331;29;20412;-68
2022/07/21 05:25:42;;;;;;;11.38;9.38;;;;;;;-141.48;100.00;69781.59;4971260;29;20019;-67
2022/07/21 05:28:13;;;;;;;13.25;12.10;;;;;;;-141.48;100.00;69781.59;4971435;29;20076;-67
2022/07/21 05:30:43;;;;;;;14.50;13.10;;;;;;;-141.48;100.00;69781.59;4971085;29;20030;-66
2022/07/21 05:33:14;;;;;;;14.10;12.63;;;;;;;-141.48;100.00;69781.59;4971199;29;20500;-67
2022/07/21 05:35:44;;;;;;;12.00;10.85;;;;;;;-141.48;100.00;69781.59;4970976;29;20106;-67
2022/07/21 05:38:15;;;;;;;14.63;13.27;;;;;;;-141.48;100.00;69781.59;4971175;29;20026;-66
2022/07/21 05:40:45;;;;;;;13.85;12.60;;;;;;;-141.48;100.00;69781.59;4971121;29;20035;-66
2022/07/21 05:43:16;;;;;;;19.15;14.05;;;;;;;-141.48;100.00;69781.59;4970906;29;20031;-66
2022/07/21 05:45:46;;;;;;;15.77;14.38;;;;;;;-141.48;100.00;69781.59;4970995;29;20448;-66
2022/07/21 05:48:17;;;;;;;15.25;14.05;;;;;;;-141.48;100.00;69781.59;4970922;29;20042;-66
2022/07/21 05:50:49;;;;;;;15.60;13.48;;;;;;;-141.48;100.00;69781.59;4970919;29;20062;-66
2022/07/21 05:53:20;;;;;;;15.18;13.93;;;;;;;-141.48;100.00;69781.59;4970752;29;20504;-66
2022/07/21 05:55:51;;;;;;;16.48;12.95;;;;;;;-141.48;100.00;69781.59;4970459;29;20030;-66
2022/07/21 05:58:23;;;;;;;18.25;16.38;;;;;;;-141.48;100.00;69781.59;4970779;29;20037;-66
2022/07/21 06:01:11;;;;;;;18.25;16.42;;;;;;;-141.48;100.00;69781.59;4970882;29;20033;-66
2022/07/21 06:03:44;;;;;;;18.05;15.52;;;;;;;-141.48;100.00;69781.59;4953985;29;20083;-66
2022/07/21 06:06:17;;;;;;;24.15;16.63;;;;;;;-141.48;100.00;69781.59;4970435;29;20030;-66
2022/07/21 06:08:48;;;;;;;18.05;16.65;;;;;;;-141.48;100.00;69781.59;4971131;29;20031;-66
2022/07/21 06:11:20;;;;;;;25.30;18.45;;;;;;;-141.48;100.00;69781.59;4971013;29;20060;-65
2022/07/21 06:13:50;;;;;;;24.65;21.02;;;;;;;-141.48;100.00;69781.59;4970500;29;20452;-65
2022/07/21 06:16:20;;;;;;;18.55;16.73;;;;;;;-141.48;100.00;69781.59;4970849;29;20042;-67
2022/07/21 06:18:51;;;;;;;17.17;15.68;;;;;;;-141.48;100.00;69781.59;4971159;29;20088;-67
2022/07/21 06:21:21;;;;;;;21.25;19.20;;;;;;;-141.48;100.00;69781.59;4970682;29;20169;-66
2022/07/21 06:23:52;;;;;;;18.75;17.08;;;;;;;-141.48;100.00;69781.59;4970459;29;20372;-67
2022/07/21 06:26:23;;;;;;;20.70;18.02;;;;;;;-141.48;100.00;69781.59;4970688;29;20031;-67
2022/07/21 06:28:53;;;;;;;21.98;19.95;;;;;;;-141.48;100.00;69781.59;4970826;29;20087;-66
2022/07/21 06:31:24;;;;;;;24.17;21.23;;;;;;;-141.48;100.00;69781.59;4970871;29;20035;-66
2022/07/21 06:33:54;;;;;;;20.88;18.95;;;;;;;-141.48;100.00;69781.59;4970211;29;20058;-66
2022/07/21 06:36:25;;;;;;;20.75;18.83;;;;;;;-141.48;100.00;69781.59;4970720;29;20106;-66
2022/07/21 06:38:55;;;;;;;22.55;19.40;;;;;;;-141.48;100.00;69781.59;4971123;29;20026;-66
2022/07/21 06:41:26;;;;;;;25.38;22.95;;;;;;;-141.48;100.00;69781.59;4970832;29;20030;-65
2022/07/21 06:43:56;;;;;;;21.90;18.85;;;;;;;-141.48;100.00;69781.59;4954778;29;20484;-66
2022/07/21 06:46:27;;;;;;;20.35;18.25;;;;;;;-141.48;100.00;69781.59;4970771;29;20411;-65
2022/07/21 06:48:57;;;;;;;20.58;18.75;;;;;;;-141.48;100.00;69781.59;4970572;29;20476;-67
2022/07/21 06:51:29;;;;;;;19.00;17.50;;;;;;;-141.48;100.00;69781.59;4970659;29;20037;-67
2022/07/21 06:53:59;;;;;;;21.90;20.13;;;;;;;-141.48;100.00;69781.59;4970369;29;20034;-66
2022/07/21 06:56:29;;;;;;;22.73;20.63;;;;;;;-141.48;100.00;69781.59;4970805;29;20031;-66
2022/07/21 06:59:00;;;;;;;20.48;18.63;;;;;;;-141.48;100.00;69781.59;4970649;29;20038;-67
2022/07/21 07:01:30;;;;;;;24.90;19.38;;;;;;;-141.48;100.00;69781.59;4970413;29;20496;-67
2022/07/21 07:04:01;;;;;;;19.23;17.58;;;;;;;-141.48;100.00;69781.59;4953757;29;20019;-67
2022/07/21 07:06:31;;;;;;;19.08;17.42;;;;;;;-141.48;100.00;69781.59;4970361;29;20056;-67
2022/07/21 07:09:02;;;;;;;18.05;16.55;;;;;;;-141.48;100.00;69781.59;4970691;29;20142;-68
2022/07/21 07:11:34;;;;;;;19.55;17.65;;;;;;;-141.48;100.00;69781.59;4954461;29;20067;-67
2022/07/21 07:14:04;;;;;;;21.50;19.35;;;;;;;-141.48;100.00;69781.59;4970205;29;20034;-67
2022/07/21 07:16:35;;;;;;;21.20;18.70;;;;;;;-141.48;100.00;69781.59;4970528;29;20507;-70
2022/07/21 07:19:05;;;;;;;19.50;16.98;;;;;;;-141.48;100.00;69781.59;4970395;29;20454;-67
2022/07/21 07:21:36;;;;;;;20.00;18.38;;;;;;;-141.48;100.00;69781.59;4970249;29;20442;-66
2022/07/21 07:24:06;;;;;;;21.17;18.88;;;;;;;-141.48;100.00;69781.59;4970050;29;20060;-66
2022/07/21 07:26:37;;;;;;;18.42;16.77;;;;;;;-141.48;100.00;69781.59;4970110;29;20023;-68
2022/07/21 07:29:08;;;;;;;18.88;17.15;;;;;;;-141.48;100.00;69781.59;4970257;29;20047;-66
2022/07/21 07:31:39;;;;;;;23.00;16.88;;;;;;;-141.48;100.00;69781.59;4970286;29;20481;-65
2022/07/21 07:34:09;;;;;;;16.35;14.73;;;;;;;-141.48;100.00;69781.59;4969620;29;20060;-67
2022/07/21 07:36:40;;;;;;;18.67;17.05;;;;;;;-141.48;100.00;69781.59;4953537;29;20102;-65
2022/07/21 07:39:11;;;;;;;16.52;15.25;;;;;;;-141.48;100.00;69781.59;4970279;29;20404;-66
2022/07/21 07:41:42;;;;;;;15.07;13.77;;;;;;;-141.48;100.00;69781.59;4970364;29;20462;-66
2022/07/21 07:44:12;;;;;;;17.75;16.50;;;;;;;-141.48;100.00;69781.59;4970216;29;20054;-66
2022/07/21 07:46:43;;;;;;;15.35;14.18;;;;;;;-141.48;100.00;69781.59;4970232;29;20031;-69
2022/07/21 07:49:13;;;;;;;17.75;16.27;;;;;;;-141.48;100.00;69781.59;4969719;29;20042;-66
2022/07/21 07:51:43;;;;;;;15.75;14.43;;;;;;;-141.48;100.00;69781.59;4970055;29;20537;-66
2022/07/21 07:54:15;;;;;;;15.25;14.13;;;;;;;-141.48;100.00;69781.59;4969510;29;20090;-66
2022/07/21 07:56:45;;;;;;;15.77;14.23;;;;;;;-141.48;100.00;69781.59;4969812;29;20044;-67
2022/07/21 07:59:15;;;;;;;12.48;11.43;;;;;;;-141.48;100.00;69781.59;4969974;29;20027;-66
2022/07/21 08:01:46;;;;;;;14.75;13.57;;;;;;;-141.48;100.00;69781.59;4969749;29;20473;-66
2022/07/21 08:04:16;;;;;;;16.23;14.85;;;;;;;-141.48;100.00;69781.59;4969566;29;20027;-65
2022/07/21 08:06:47;;;;;;;14.13;12.90;;;;;;;-141.48;100.00;69781.59;4969655;29;20087;-66
2022/07/21 08:09:19;;;;;;;13.68;12.30;;;;;;;-141.48;100.00;69781.59;4970252;29;20413;-66
2022/07/21 08:11:50;;;;;;;12.25;11.32;;;;;;;-141.48;100.00;69781.59;4953641;29;20049;-67
2022/07/21 08:14:21;;;;;;;11.68;10.75;;;;;;;-141.48;100.00;69781.59;4969474;29;20038;-66
2022/07/21 08:16:51;;;;;;;12.15;11.18;;;;;;;-141.48;100.00;69781.59;4953344;29;20031;-66
2022/07/21 08:19:22;;;;;;;12.57;11.68;;;;;;;-141.48;100.00;69781.59;4969812;29;20023;-68
2022/07/21 08:21:52;;;;;;;12.52;11.55;;;;;;;-141.48;100.00;69781.59;4969578;29;20406;-66
2022/07/21 08:24:23;;;;;;;11.57;10.80;;;;;;;-141.48;100.00;69781.59;4969314;29;20023;-68
2022/07/21 08:26:53;;;;;;;12.10;11.00;;;;;;;-141.48;100.00;69781.59;4953283;29;20042;-66
2022/07/21 08:29:24;;;;;;;9.88;9.02;;;;;;;-141.48;100.00;69781.59;4969465;29;20030;-65
2022/07/21 08:31:54;;;;;;;12.10;11.13;;;;;;;-141.48;100.00;69781.59;4969309;29;20042;-66
2022/07/21 08:34:25;;;;;;;12.68;11.88;;;;;;;-141.48;100.00;69781.59;4969143;29;20103;-65
2022/07/21 08:36:55;;;;;;;14.30;13.23;;;;;;;-141.48;100.00;69781.59;4969589;29;20497;-66
2022/07/21 08:39:26;;;;;;;13.70;12.70;;;;;;;-141.48;100.00;69781.59;4969274;29;20397;-66
2022/07/21 08:41:57;;;;;;;15.07;13.75;;;;;;;-141.48;100.00;69781.59;4969185;29;20034;-65
2022/07/21 08:44:28;;;;;;;15.68;14.25;;;;;;;-141.48;100.00;69781.59;4969103;29;20164;-66
2022/07/21 08:46:59;;;;;;;14.07;12.90;;;;;;;-141.48;100.00;69781.59;4969243;29;20513;-65
2022/07/21 08:49:31;;;;;;;15.35;13.85;;;;;;;-141.48;100.00;69781.59;4939870;29;20035;-65
2022/07/21 08:52:05;;;;;;;16.27;14.88;;;;;;;-141.48;100.00;69781.59;4972806;29;20027;-66
2022/07/21 08:54:35;;;;;;;18.25;16.63;;;;;;;-141.48;100.00;69781.59;4972438;29;20034;-67
2022/07/21 08:57:06;;;;;;;17.13;15.93;;;;;;;-141.48;100.00;69781.59;4972753;29;20039;-66
2022/07/21 08:59:36;;;;;;;16.67;15.30;;;;;;;-141.48;100.00;69781.59;4956307;29;20488;-67
2022/07/21 09:02:28;;;;;;;17.35;15.88;;;;;;;-141.48;100.00;69781.59;4972642;29;20476;-66
2022/07/21 09:04:59;;;;;;;19.27;17.52;;;;;;;-141.48;100.00;69781.59;4972630;29;20107;-68
2022/07/21 09:07:56;;;;;;;17.35;15.63;;;;;;;-141.48;100.00;69781.59;4972480;29;20035;-68
2022/07/21 09:10:29;;;;;;;21.42;17.70;;;;;;;-141.48;100.00;69781.59;4972505;29;20497;-67
2022/07/21 09:13:03;;;;;;;15.23;13.93;;;;;;;-141.48;100.00;69781.59;4972418;29;20038;-67
2022/07/21 09:15:34;;;;;;;16.75;15.65;;;;;;;-141.48;100.00;69781.59;4955862;29;20022;-67
2022/07/21 09:18:15;;;;;;;16.52;15.15;;;;;;;-141.48;100.00;69781.59;4972311;29;20092;-66
2022/07/21 09:20:48;;;;;;;15.55;14.38;;;;;;;-141.48;100.00;69781.59;4972359;29;20087;-66
2022/07/21 09:23:22;;;;;;;15.57;14.27;;;;;;;-141.48;100.00;69781.59;4972123;29;20039;-66
2022/07/21 09:25:56;;;;;;;16.55;15.43;;;;;;;-141.48;100.00;69781.59;4956020;29;20023;-66
2022/07/21 09:28:29;;;;;;;18.40;16.85;;;;;;;-141.48;100.00;69781.59;4972098;29;20047;-66
2022/07/21 09:31:01;;;;;;;14.93;13.75;;;;;;;-141.48;100.00;69781.59;4941355;29;20138;-66
2022/07/21 09:33:40;;;;;;;16.80;15.35;;;;;;;-141.48;100.00;69781.59;4971635;29;20458;-65
2022/07/21 09:36:16;;;;;;;17.38;15.90;;;;;;;-141.48;100.00;69781.59;4972181;29;20512;-66
2022/07/21 09:38:51;;;;;;;16.95;15.60;;;;;;;-141.48;100.00;69781.59;4972082;29;20405;-66
2022/07/21 09:41:23;;;;;;;18.13;16.65;;;;;;;-141.48;100.00;69781.59;4971830;29;20456;-67
2022/07/21 09:43:56;;;;;;;15.77;13.88;;;;;;;-141.48;100.00;69781.59;4955197;29;20042;-67
2022/07/21 09:46:29;;;;;;;14.98;13.50;;;;;;;-141.48;100.00;69781.59;4971723;29;20517;-68
2022/07/21 09:49:02;;;;;;;12.68;11.38;;;;;;;-141.48;100.00;69781.59;4972016;29;20039;-70
2022/07/21 09:51:37;;;;;;;13.25;12.23;;;;;;;-141.48;100.00;69781.59;4971834;29;20026;-68
2022/07/21 09:54:10;;;;;;;14.60;13.18;;;;;;;-141.48;100.00;69781.59;4971299;29;20392;-67
2022/07/21 09:56:43;;;;;;;12.13;10.93;;;;;;;-141.48;100.00;69781.59;4971795;29;20110;-69
2022/07/21 09:59:14;;;;;;;11.88;10.80;;;;;;;-141.48;100.00;69781.59;4971322;29;20115;-68
2022/07/21 10:01:46;;;;;;;12.77;11.15;;;;;;;-141.48;100.00;69781.59;4971645;29;20109;-69
2022/07/21 10:04:21;;;;;;;11.77;10.90;;;;;;;-141.48;100.00;69781.59;4954977;29;20027;-71
2022/07/21 10:06:52;;;;;;;10.32;9.52;;;;;;;-141.48;100.00;69781.59;4971416;29;20258;-69
2022/07/21 10:09:22;;;;;;;9.25;8.38;;;;;;;-141.48;100.00;69781.59;4971208;29;20101;-67
2022/07/21 10:11:53;;;;;;;11.02;9.60;;;;;;;-141.48;100.00;69781.59;4971243;29;20033;-68
2022/07/21 10:14:24;;;;;;;9.45;8.57;;;;;;;-141.48;100.00;69781.59;4970988;29;20380;-69
2022/07/21 10:16:54;;;;;;;14.40;9.88;;;;;;;-141.48;100.00;69781.59;4971372;29;20027;-66
2022/07/21 10:19:25;;;;;;;10.00;9.40;;;;;;;-141.48;100.00;69781.59;4971054;29;20042;-68
2022/07/21 10:22:09;;;;;;;9.77;9.00;;;;;;;-141.48;100.00;69781.59;4971277;29;20544;-67
2022/07/21 10:24:40;;;;;;;9.95;8.98;;;;;;;-141.48;100.00;69781.59;4970902;29;20127;-68
2022/07/21 10:27:13;;;;;;;10.50;8.60;;;;;;;-141.48;100.00;69781.59;4955079;29;20049;-67
2022/07/21 10:29:55;;;;;;;9.15;8.23;;;;;;;-141.48;100.00;69781.59;4970703;29;20544;-67
2022/07/21 10:32:32;;;;;;;8.90;8.05;;;;;;;-141.48;100.00;69781.59;4970829;29;20031;-67
2022/07/21 10:35:25;;;;;;;11.60;10.55;;;;;;;-141.48;100.00;69781.59;4970569;29;20035;-66
2022/07/21 10:37:57;;;;;;;9.48;8.57;;;;;;;-141.48;100.00;69781.59;4970840;29;20481;-66
2022/07/21 10:40:28;;;;;;;9.43;8.82;;;;;;;-141.48;100.00;69781.59;4954814;29;20026;-66
2022/07/21 10:42:58;;;;;;;9.32;8.63;;;;;;;-141.48;100.00;69781.59;4970884;29;20494;-67
2022/07/21 10:45:31;;;;;;;8.88;8.13;;;;;;;-141.48;100.00;69781.59;4970210;29;20113;-67
2022/07/21 10:48:04;;;;;;;9.13;8.32;;;;;;;-141.48;100.00;69781.59;4970374;29;20123;-67
2022/07/21 10:50:35;;;;;;;12.20;7.35;;;;;;;-141.48;100.00;69781.59;4970478;29;20390;-67
2022/07/21 10:53:14;;;;;;;9.60;8.43;;;;;;;-141.48;100.00;69781.59;4970651;29;20385;-67
2022/07/21 10:55:50;;;;;;;8.75;8.23;;;;;;;-141.48;100.00;69781.59;4970588;29;20027;-66
2022/07/21 10:58:20;;;;;;;10.93;9.00;;;;;;;-141.48;100.00;69781.59;4954187;29;20035;-66
2022/07/21 11:00:53;;;;;;;9.43;7.90;;;;;;;-141.48;100.00;69781.59;4970323;29;20117;-67
2022/07/21 11:03:33;;;;;;;8.38;7.72;;;;;;;-141.48;100.00;69781.59;4970091;29;20042;-67
2022/07/21 11:06:09;;;;;;;7.53;6.85;;;;;;;-141.48;100.00;69781.59;4970523;29;20049;-67
2022/07/21 11:08:43;;;;;;;6.90;6.53;;;;;;;-141.48;100.00;69781.59;4970404;29;20027;-67
2022/07/21 11:11:17;;;;;;;10.00;7.65;;;;;;;-141.48;100.00;69781.59;4953147;29;20027;-67
2022/07/21 11:14:07;;;;;;;9.35;8.73;;;;;;;-141.48;100.00;69781.59;4969765;29;20031;-68
2022/07/21 11:16:48;;;;;;;6.90;6.43;;;;;;;-141.48;100.00;69781.59;4970703;29;20023;-71
2022/07/21 11:19:52;;;;;;;6.85;6.32;;;;;;;-141.48;100.00;69781.59;4970019;29;20404;-67